Christine Cenac — WDJ7480 — position and weather

sailwx.info

Track history (hours):
 
Tides and Currents Weather Stations Pressure Air Temp Water Temp Dewpoint Dewpoint Depression Visibility Wind Speed Wind Dir Waves Ship Positions

Christine Cenac

Owner: Cenac Marine Services, LLC, Houma, LA. More information available from US FCC via Universal Licensing System and Coast Guard Vessel Documentation Center.

Last reported at 2017-Nov-20 00:27 UTC. Time now 2017-Nov-22 09:23 UTC.
Position N 32°40' W 091°08'.

Length 25 m; draft 3.3 m.

Type: Ship (hazmat cat C). MMSI: 368007120.

Date/timePositionNaut miles runAvg speedWind from/ knotsBaromVisibWave heightAir tempDewpointWater temp
2017-Nov-20 00:27N 32°40' W 091°08'3 4.3
2017-Nov-19 23:45N 32°37' W 091°09'1 4.4
2017-Nov-19 23:30N 32°36' W 091°09'2 4.7
2017-Nov-19 23:00N 32°35' W 091°07'4 4.3
2017-Nov-19 22:09N 32°31' W 091°06'1 6.2
2017-Nov-19 22:00N 32°30' W 091°07'2 4.9
2017-Nov-19 21:30N 32°28' W 091°06'2 5.0
2017-Nov-19 21:00N 32°26' W 091°04'2 4.9
2017-Nov-19 20:30N 32°26' W 091°01'2 4.6
2017-Nov-19 20:00N 32°24' W 090°59'2 4.3
2017-Nov-19 19:30N 32°22' W 091°00'0 0.1
2017-Nov-19 19:00N 32°22' W 091°01'2 3.5
2017-Nov-19 18:31N 32°21' W 090°59'3 5.2
2017-Nov-19 18:01N 32°21' W 090°56'2 4.3
2017-Nov-19 17:30N 32°19' W 090°54'2 3.5
2017-Nov-19 17:01N 32°18' W 090°56'0 0.2
2017-Nov-19 16:30N 32°18' W 090°56'1 2.7
2017-Nov-19 16:01N 32°17' W 090°57'2 4.9
2017-Nov-19 15:31N 32°15' W 090°59'3 5.2
2017-Nov-19 15:00N 32°12' W 090°59'3 4.9
2017-Nov-19 14:24N 32°09' W 091°00'2 4.8
2017-Nov-19 14:00N 32°08' W 091°01'4 5.2
2017-Nov-19 13:13N 32°08' W 091°06'1 5.1
2017-Nov-19 13:01N 32°07' W 091°07'5 4.8
2017-Nov-19 11:52N 32°02' W 091°04'  
2017-Nov-13 02:01N 32°02' W 091°04'4 8.5
2017-Nov-13 01:30N 32°06' W 091°06'3 5.3
2017-Nov-13 01:00N 32°07' W 091°03'4 7.3
2017-Nov-13 00:31N 32°10' W 091°00'5 9.4
2017-Nov-13 00:00N 32°15' W 090°59'5 9.2
2017-Nov-12 23:31N 32°18' W 090°55'3 5.9
2017-Nov-12 23:00N 32°21' W 090°56'4 7.8
2017-Nov-12 22:30N 32°22' W 091°00'4 7.6
2017-Nov-12 22:00N 32°26' W 091°02'5 9.1
2017-Nov-12 21:31N 32°28' W 091°06'5 9.0
2017-Nov-12 20:57N 32°33' W 091°06'4 9.0
2017-Nov-12 20:30N 32°36' W 091°09'  
Track history (hours):
 
Tides and Currents Weather Stations Pressure Air Temp Water Temp Dewpoint Dewpoint Depression Visibility Wind Speed Wind Dir Waves Ship Positions

Christine Cenac

Owner: Cenac Marine Services, LLC, Houma, LA. More information available from US FCC via Universal Licensing System and Coast Guard Vessel Documentation Center.

Last reported at 2017-Nov-20 00:27 UTC. Time now 2017-Nov-22 09:23 UTC.
Position N 32°40' W 091°08'.

Length 25 m; draft 3.3 m.

Type: Ship (hazmat cat C). MMSI: 368007120.

Date/timePositionNaut miles runAvg speedWind from/ knotsBaromVisibWave heightAir tempDewpointWater temp
2017-Nov-20 00:27N 32°40' W 091°08'3 4.3
2017-Nov-19 23:45N 32°37' W 091°09'1 4.4
2017-Nov-19 23:30N 32°36' W 091°09'2 4.7
2017-Nov-19 23:00N 32°35' W 091°07'4 4.3
2017-Nov-19 22:09N 32°31' W 091°06'1 6.2
2017-Nov-19 22:00N 32°30' W 091°07'2 4.9
2017-Nov-19 21:30N 32°28' W 091°06'2 5.0
2017-Nov-19 21:00N 32°26' W 091°04'2 4.9
2017-Nov-19 20:30N 32°26' W 091°01'2 4.6
2017-Nov-19 20:00N 32°24' W 090°59'2 4.3
2017-Nov-19 19:30N 32°22' W 091°00'0 0.1
2017-Nov-19 19:00N 32°22' W 091°01'2 3.5
2017-Nov-19 18:31N 32°21' W 090°59'3 5.2
2017-Nov-19 18:01N 32°21' W 090°56'2 4.3
2017-Nov-19 17:30N 32°19' W 090°54'2 3.5
2017-Nov-19 17:01N 32°18' W 090°56'0 0.2
2017-Nov-19 16:30N 32°18' W 090°56'1 2.7
2017-Nov-19 16:01N 32°17' W 090°57'2 4.9
2017-Nov-19 15:31N 32°15' W 090°59'3 5.2
2017-Nov-19 15:00N 32°12' W 090°59'3 4.9
2017-Nov-19 14:24N 32°09' W 091°00'2 4.8
2017-Nov-19 14:00N 32°08' W 091°01'4 5.2
2017-Nov-19 13:13N 32°08' W 091°06'1 5.1
2017-Nov-19 13:01N 32°07' W 091°07'5 4.8
2017-Nov-19 11:52N 32°02' W 091°04'  
2017-Nov-13 02:01N 32°02' W 091°04'4 8.5
2017-Nov-13 01:30N 32°06' W 091°06'3 5.3
2017-Nov-13 01:00N 32°07' W 091°03'4 7.3
2017-Nov-13 00:31N 32°10' W 091°00'5 9.4
2017-Nov-13 00:00N 32°15' W 090°59'5 9.2
2017-Nov-12 23:31N 32°18' W 090°55'3 5.9
2017-Nov-12 23:00N 32°21' W 090°56'4 7.8
2017-Nov-12 22:30N 32°22' W 091°00'4 7.6
2017-Nov-12 22:00N 32°26' W 091°02'5 9.1
2017-Nov-12 21:31N 32°28' W 091°06'5 9.0
2017-Nov-12 20:57N 32°33' W 091°06'4 9.0
2017-Nov-12 20:30N 32°36' W 091°09'  

Dump ship's entire track history